createdAt,value
2023-11-30T00:00:29.473Z,95487.66
2023-11-30T00:02:56.118Z,95488.78
2023-11-30T00:05:23.727Z,95469.25
2023-11-30T00:07:50.733Z,95492.53
2023-11-30T00:10:17.509Z,95470.31
2023-11-30T00:12:44.257Z,95473.28
2023-11-30T00:15:10.993Z,95464.69
2023-11-30T00:17:37.729Z,95456.31
2023-11-30T00:20:04.882Z,95455.53
2023-11-30T00:22:31.734Z,95456.38
2023-11-30T00:24:58.385Z,95450.44
2023-11-30T00:27:25.130Z,95457.28
2023-11-30T00:29:51.944Z,95449.81
2023-11-30T00:32:18.628Z,95457.69
2023-11-30T00:34:45.404Z,95450.66
2023-11-30T00:37:12.131Z,95445.44
2023-11-30T00:39:38.930Z,95434.09
2023-11-30T00:42:05.880Z,95449.06
2023-11-30T00:44:32.920Z,95434.78
2023-11-30T00:46:59.916Z,95432.25
2023-11-30T00:49:26.478Z,95428.84
2023-11-30T00:51:53.223Z,95428.56
2023-11-30T00:54:20.091Z,95424.00
2023-11-30T00:56:46.924Z,95425.31
2023-11-30T00:59:13.797Z,95427.38
2023-11-30T01:01:40.588Z,95423.97
2023-11-30T01:04:07.439Z,95418.25
2023-11-30T01:06:34.304Z,95423.78
2023-11-30T01:09:01.069Z,95413.19
2023-11-30T01:11:27.763Z,95413.13
2023-11-30T01:13:54.498Z,95415.66
2023-11-30T01:16:21.263Z,95407.78
2023-11-30T01:18:48.580Z,95404.72
2023-11-30T01:21:15.377Z,95412.97
2023-11-30T01:23:42.164Z,95403.97
2023-11-30T01:26:09.175Z,95411.44
2023-11-30T01:28:35.739Z,95423.44
2023-11-30T01:31:02.428Z,95418.28
2023-11-30T01:33:29.281Z,95418.88
2023-11-30T01:35:56.045Z,95436.31
2023-11-30T01:38:22.688Z,95430.44
2023-11-30T01:40:49.399Z,95424.88
2023-11-30T01:43:22.085Z,95432.78
2023-11-30T01:45:53.390Z,95433.81
2023-11-30T01:48:25.494Z,95437.06
2023-11-30T01:50:52.444Z,95431.47
2023-11-30T01:53:19.727Z,95432.22
2023-11-30T01:55:46.569Z,95435.97
2023-11-30T01:58:14.996Z,95434.44
2023-11-30T02:00:42.339Z,95435.97
2023-11-30T02:03:09.644Z,95432.22
2023-11-30T02:05:36.436Z,95424.34
2023-11-30T02:08:03.493Z,95431.88
2023-11-30T02:10:30.201Z,95419.06
2023-11-30T02:12:56.863Z,95423.97
2023-11-30T02:15:24.946Z,95421.84
2023-11-30T02:17:51.844Z,95418.19
2023-11-30T02:20:19.453Z,95421.28
2023-11-30T02:22:47.068Z,95421.41
2023-11-30T02:25:13.986Z,95419.91
2023-11-30T02:27:40.890Z,95427.75
2023-11-30T02:30:08.382Z,95407.31
2023-11-30T02:32:35.233Z,95416.63
2023-11-30T02:35:03.300Z,95423.78
2023-11-30T02:37:30.118Z,95404.28
2023-11-30T02:39:57.172Z,95407.66
2023-11-30T02:42:23.764Z,95405.03
2023-11-30T02:44:50.525Z,95407.31
2023-11-30T02:47:17.328Z,95394.50
2023-11-30T02:49:44.211Z,95391.53
2023-11-30T02:52:10.820Z,95382.44
2023-11-30T02:54:37.799Z,95371.47
2023-11-30T02:57:05.139Z,95359.34
2023-11-30T02:59:32.761Z,95373.25
2023-11-30T03:02:00.086Z,95374.84
2023-11-30T03:04:26.846Z,95363.56
2023-11-30T03:06:53.680Z,95357.47
2023-11-30T03:09:20.511Z,95363.78
2023-11-30T03:11:47.186Z,95374.97
2023-11-30T03:14:13.815Z,95372.69
2023-11-30T03:16:40.969Z,95376.44
2023-11-30T03:19:16.305Z,95372.69
2023-11-30T03:21:45.400Z,95373.81
2023-11-30T03:24:12.830Z,95377.13
2023-11-30T03:26:39.862Z,95368.75
2023-11-30T03:29:06.652Z,95370.97
2023-11-30T03:31:34.727Z,95369.88
2023-11-30T03:34:02.603Z,95372.22
2023-11-30T03:36:29.452Z,95372.69
2023-11-30T03:38:57.258Z,95361.84
2023-11-30T03:41:24.285Z,95365.97
2023-11-30T03:43:51.082Z,95370.97
2023-11-30T03:46:17.800Z,95372.84
2023-11-30T03:48:44.637Z,95361.56
2023-11-30T03:51:12.688Z,95351.81
2023-11-30T03:53:39.469Z,95345.84
2023-11-30T03:56:06.409Z,95335.75
2023-11-30T03:58:34.286Z,95329.72
2023-11-30T04:01:01.159Z,95329.25
2023-11-30T04:03:28.412Z,95323.09
2023-11-30T04:05:55.174Z,95320.31
2023-11-30T04:08:22.027Z,95313.41
2023-11-30T04:10:48.684Z,95307.94
2023-11-30T04:13:15.821Z,95300.25
2023-11-30T04:15:42.721Z,95298.69
2023-11-30T04:18:09.594Z,95303.19
2023-11-30T04:20:36.686Z,95301.31
2023-11-30T04:23:03.224Z,95301.03
2023-11-30T04:25:30.686Z,95307.81
2023-11-30T04:27:57.511Z,95307.81
2023-11-30T04:30:24.196Z,95301.03
2023-11-30T04:32:50.925Z,95296.19
2023-11-30T04:35:17.710Z,95302.97
2023-11-30T04:37:44.354Z,95297.91
2023-11-30T04:40:13.784Z,95303.25
2023-11-30T04:42:40.886Z,95298.75
2023-11-30T04:45:07.709Z,95282.53
2023-11-30T04:47:34.523Z,95290.50
2023-11-30T04:50:01.235Z,95290.63
2023-11-30T04:52:27.927Z,95277.19
2023-11-30T04:54:54.579Z,95280.19
2023-11-30T04:57:21.503Z,95276.38
2023-11-30T04:59:48.313Z,95274.47
2023-11-30T05:02:15.214Z,95276.66
2023-11-30T05:04:42.295Z,95271.84
2023-11-30T05:07:09.151Z,95263.94
2023-11-30T05:09:35.837Z,95265.78
2023-11-30T05:12:02.853Z,95261.63
2023-11-30T05:14:29.451Z,95256.72
2023-11-30T05:16:56.302Z,95233.78
2023-11-30T05:19:23.356Z,95235.22
2023-11-30T05:21:49.904Z,95229.56
2023-11-30T05:24:18.146Z,95225.81
2023-11-30T05:26:45.122Z,95230.31
2023-11-30T05:29:11.947Z,95228.44
2023-11-30T05:31:39.009Z,95225.13
2023-11-30T05:34:05.601Z,95211.56
2023-11-30T05:36:32.714Z,95229.19
2023-11-30T05:38:59.988Z,95222.03
2023-11-30T05:41:27.048Z,95212.97
2023-11-30T05:43:53.972Z,95219.28
2023-11-30T05:46:21.272Z,95219.53
2023-11-30T05:48:48.197Z,95218.03
2023-11-30T05:51:15.197Z,95205.25
2023-11-30T05:53:42.435Z,95201.50
2023-11-30T05:56:09.590Z,95194.09
2023-11-30T05:58:37.468Z,95183.31
2023-11-30T06:01:04.677Z,95177.34
2023-11-30T06:03:31.732Z,95185.22
2023-11-30T06:05:58.721Z,95179.22
2023-11-30T06:08:28.368Z,95173.88
2023-11-30T06:10:55.155Z,95170.09
2023-11-30T06:13:25.969Z,95165.94
2023-11-30T06:15:53.921Z,95154.94
2023-11-30T06:18:21.203Z,95151.97
2023-11-30T06:20:48.150Z,95155.72
2023-11-30T06:23:14.961Z,95160.97
2023-11-30T06:25:44.030Z,95157.22
2023-11-30T06:28:10.754Z,95154.28
2023-11-30T06:30:40.899Z,95151.34
2023-11-30T06:33:08.131Z,95145.78
2023-11-30T06:35:35.260Z,95141.25
2023-11-30T06:38:01.884Z,95143.81
2023-11-30T06:40:28.799Z,95149.00
2023-11-30T06:42:55.737Z,95152.75
2023-11-30T06:45:22.497Z,95152.75
2023-11-30T06:47:49.462Z,95153.09
2023-11-30T06:50:16.449Z,95159.03
2023-11-30T06:52:43.124Z,95157.88
2023-11-30T06:55:10.058Z,95145.06
2023-11-30T06:57:39.850Z,95148.81
2023-11-30T07:00:12.107Z,95145.03
2023-11-30T07:02:38.998Z,95153.31
2023-11-30T07:05:06.754Z,95143.88
2023-11-30T07:07:37.342Z,95142.66
2023-11-30T07:10:05.458Z,95142.28
2023-11-30T07:12:32.411Z,95143.38
2023-11-30T07:14:59.568Z,95142.28
2023-11-30T07:17:26.303Z,95140.75
2023-11-30T07:19:54.403Z,95142.66
2023-11-30T07:22:23.449Z,95145.72
2023-11-30T07:24:50.303Z,95143.50
2023-11-30T07:27:20.953Z,95142.75
2023-11-30T07:29:48.290Z,95144.63
2023-11-30T07:32:19.092Z,95150.28
2023-11-30T07:34:46.998Z,95145.78
2023-11-30T07:37:19.406Z,95150.28
2023-11-30T07:39:46.224Z,95153.25
2023-11-30T07:42:28.837Z,95160.78
2023-11-30T07:45:00.685Z,95157.19
2023-11-30T07:47:27.775Z,95160.63
2023-11-30T07:49:55.364Z,95162.91
2023-11-30T07:52:22.487Z,95165.91
2023-11-30T07:54:49.370Z,95168.94
2023-11-30T07:57:17.829Z,95174.19
2023-11-30T07:59:45.642Z,95167.41
2023-11-30T08:02:13.257Z,95167.41
2023-11-30T08:04:40.808Z,95178.69
2023-11-30T08:07:07.673Z,95175.28
2023-11-30T08:09:34.637Z,95176.81
2023-11-30T08:12:01.595Z,95166.28
2023-11-30T08:14:29.368Z,95168.56
2023-11-30T08:16:56.424Z,95171.97
2023-11-30T08:19:23.257Z,95158.75
2023-11-30T08:21:50.386Z,95155.38
2023-11-30T08:24:17.138Z,95156.47
2023-11-30T08:26:43.983Z,95149.69
2023-11-30T08:29:10.779Z,95147.41
2023-11-30T08:31:37.984Z,95147.81
2023-11-30T08:34:05.830Z,95142.63
2023-11-30T08:36:32.911Z,95149.00
2023-11-30T08:38:59.615Z,95146.72
2023-11-30T08:41:26.370Z,95151.97
2023-11-30T08:43:53.290Z,95147.50
2023-11-30T08:46:20.298Z,95150.44
2023-11-30T08:48:47.416Z,95147.41
2023-11-30T08:51:15.534Z,95148.13
2023-11-30T08:53:42.470Z,95151.16
2023-11-30T08:56:09.792Z,95150.03
2023-11-30T08:58:37.062Z,95151.56
2023-11-30T09:01:04.998Z,95147.78
2023-11-30T09:03:31.990Z,95141.75
2023-11-30T09:05:58.752Z,95144.75
2023-11-30T09:08:25.566Z,95153.38
2023-11-30T09:10:52.252Z,95159.03
2023-11-30T09:13:19.153Z,95149.28
2023-11-30T09:15:45.878Z,95147.38
2023-11-30T09:18:13.133Z,95136.84
2023-11-30T09:20:40.036Z,95144.38
2023-11-30T09:23:07.444Z,95142.53
2023-11-30T09:25:34.400Z,95144.78
2023-11-30T09:28:01.509Z,95139.94
2023-11-30T09:30:28.117Z,95127.16
2023-11-30T09:32:54.959Z,95123.06
2023-11-30T09:35:21.954Z,95128.38
2023-11-30T09:37:49.564Z,95129.50
2023-11-30T09:40:16.673Z,95134.03
2023-11-30T09:42:43.710Z,95139.41
2023-11-30T09:45:10.741Z,95139.53
2023-11-30T09:47:37.636Z,95138.81
2023-11-30T09:50:04.751Z,95123.81
2023-11-30T09:52:32.913Z,95127.16
2023-11-30T09:55:00.451Z,95132.38
2023-11-30T09:57:27.636Z,95119.22
2023-11-30T09:59:56.018Z,95122.59
2023-11-30T10:02:26.863Z,95123.38
2023-11-30T10:04:54.076Z,95128.66
2023-11-30T10:07:22.095Z,95115.59
2023-11-30T10:09:49.177Z,95117.84
2023-11-30T10:12:19.728Z,95113.75
2023-11-30T10:14:47.329Z,95114.97
2023-11-30T10:17:14.121Z,95123.28
2023-11-30T10:19:41.393Z,95121.06
2023-11-30T10:22:08.472Z,95116.56
2023-11-30T10:24:35.176Z,95110.47
2023-11-30T10:27:06.507Z,95117.63
2023-11-30T10:29:38.363Z,95121.00
2023-11-30T10:32:08.471Z,95119.13
2023-11-30T10:34:44.931Z,95110.56
2023-11-30T10:37:13.388Z,95107.97
2023-11-30T10:39:43.279Z,95108.34
2023-11-30T10:42:14.283Z,95104.63
2023-11-30T10:44:43.413Z,95105.31
2023-11-30T10:47:11.905Z,95088.72
2023-11-30T10:49:39.784Z,95086.47
2023-11-30T10:52:08.515Z,95078.94
2023-11-30T10:54:52.455Z,95080.03
2023-11-30T10:57:20.471Z,95072.91
2023-11-30T10:59:49.383Z,95080.03
2023-11-30T11:02:16.608Z,95071.03
2023-11-30T11:04:44.219Z,95079.75
2023-11-30T11:07:14.371Z,95079.44
2023-11-30T11:09:55.771Z,95076.91
2023-11-30T11:12:26.810Z,95077.72
2023-11-30T11:15:14.435Z,95080.75
2023-11-30T11:17:55.341Z,95077.00
2023-11-30T11:20:26.679Z,95076.25
2023-11-30T11:22:58.186Z,95076.31
2023-11-30T11:25:26.339Z,95077.81
2023-11-30T11:27:53.171Z,95075.63
2023-11-30T11:30:22.040Z,95063.66
2023-11-30T11:32:50.321Z,95068.25
2023-11-30T11:35:17.057Z,95064.50
2023-11-30T11:37:43.799Z,95064.06
2023-11-30T11:40:10.966Z,95065.25
2023-11-30T11:42:37.684Z,95058.47
2023-11-30T11:45:05.686Z,95048.28
2023-11-30T11:47:32.788Z,95044.56
2023-11-30T11:50:00.334Z,95045.66
2023-11-30T11:52:28.894Z,95042.63
2023-11-30T11:55:09.691Z,95032.91
2023-11-30T11:57:38.426Z,95036.31
2023-11-30T12:00:21.692Z,95033.78
2023-11-30T12:02:50.111Z,95030.78
2023-11-30T12:05:23.433Z,95029.28
2023-11-30T12:08:01.568Z,95022.13
2023-11-30T12:10:43.403Z,95028.88
2023-11-30T12:13:13.754Z,95023.16
2023-11-30T12:15:41.226Z,95029.56
2023-11-30T12:18:08.644Z,95028.41
2023-11-30T12:20:36.334Z,95018.94
2023-11-30T12:23:03.393Z,95025.72
2023-11-30T12:25:30.072Z,95025.31
2023-11-30T12:27:57.080Z,95027.19
2023-11-30T12:30:24.624Z,95024.53
2023-11-30T12:32:52.132Z,95024.13
2023-11-30T12:35:19.070Z,95029.81
2023-11-30T12:37:45.808Z,95028.25
2023-11-30T12:40:15.021Z,95030.09
2023-11-30T12:42:45.447Z,95026.34
2023-11-30T12:45:14.212Z,95027.47
2023-11-30T12:47:41.976Z,95030.78
2023-11-30T12:50:10.539Z,95032.28
2023-11-30T12:52:37.976Z,95023.22
2023-11-30T12:55:06.222Z,95016.84
2023-11-30T12:57:38.693Z,95025.19
2023-11-30T13:00:10.923Z,95029.75
2023-11-30T13:02:37.986Z,95033.19
2023-11-30T13:05:05.431Z,95031.34
2023-11-30T13:07:32.148Z,95035.84
2023-11-30T13:09:59.449Z,95039.53
2023-11-30T13:12:27.879Z,95034.28
2023-11-30T13:14:57.816Z,95033.88
2023-11-30T13:17:25.113Z,95032.38
2023-11-30T13:19:52.134Z,95028.97
2023-11-30T13:22:19.012Z,95020.34
2023-11-30T13:24:45.935Z,95021.09
2023-11-30T13:27:13.266Z,95011.22
2023-11-30T13:29:40.076Z,95018.38
2023-11-30T13:32:07.527Z,95013.09
2023-11-30T13:34:36.040Z,95017.66
2023-11-30T13:37:02.801Z,95015.75
2023-11-30T13:39:29.707Z,95018.38
2023-11-30T13:41:58.458Z,95021.81
2023-11-30T13:44:26.062Z,95019.59
2023-11-30T13:46:53.306Z,95013.22
2023-11-30T13:49:21.384Z,95019.97
2023-11-30T13:51:50.990Z,95022.47
2023-11-30T13:54:18.040Z,95023.22
2023-11-30T13:56:45.339Z,95019.78
2023-11-30T13:59:12.524Z,95017.88
2023-11-30T14:01:39.546Z,95014.88
2023-11-30T14:04:09.289Z,95014.53
2023-11-30T14:06:40.485Z,95016.41
2023-11-30T14:09:15.792Z,95010.03
2023-11-30T14:11:42.961Z,95014.13
2023-11-30T14:14:09.753Z,95017.47
2023-11-30T14:16:36.571Z,95016.78
2023-11-30T14:19:03.342Z,95012.34
2023-11-30T14:21:30.089Z,95002.28
2023-11-30T14:23:57.058Z,95009.00
2023-11-30T14:26:23.967Z,95011.28
2023-11-30T14:28:51.440Z,95013.13
2023-11-30T14:31:18.434Z,95017.16
2023-11-30T14:33:46.786Z,95012.25
2023-11-30T14:36:14.257Z,95006.16
2023-11-30T14:38:42.027Z,95003.34
2023-11-30T14:41:09.398Z,95005.09
2023-11-30T14:43:36.207Z,95002.75
2023-11-30T14:46:03.645Z,95009.06
2023-11-30T14:48:30.396Z,95010.88
2023-11-30T14:50:57.118Z,95027.00
2023-11-30T14:53:23.898Z,95029.63
2023-11-30T14:55:50.589Z,95026.19
2023-11-30T14:58:17.357Z,95029.53
2023-11-30T15:00:44.121Z,95030.22
2023-11-30T15:03:12.595Z,95043.72
2023-11-30T15:05:39.871Z,95042.53
2023-11-30T15:08:06.797Z,95035.28
2023-11-30T15:10:33.550Z,95036.78
2023-11-30T15:13:00.687Z,95040.84
2023-11-30T15:15:27.833Z,95040.06
2023-11-30T15:17:55.126Z,95035.41
2023-11-30T15:20:23.973Z,95053.38
2023-11-30T15:22:50.935Z,95039.13
2023-11-30T15:25:19.160Z,95047.41
2023-11-30T15:27:47.879Z,95061.66
2023-11-30T15:30:16.478Z,95062.38
2023-11-30T15:32:43.929Z,95063.84
2023-11-30T15:35:10.908Z,95048.34
2023-11-30T15:37:38.211Z,95033.66
2023-11-30T15:40:09.866Z,95032.84
2023-11-30T15:42:37.877Z,95043.31
2023-11-30T15:45:05.465Z,95035.91
2023-11-30T15:47:32.527Z,95037.41
2023-11-30T15:49:59.265Z,95049.44
2023-11-30T15:52:26.395Z,95035.16
2023-11-30T15:54:53.357Z,95017.91
2023-11-30T15:57:21.927Z,95021.19
2023-11-30T15:59:48.724Z,95025.28
2023-11-30T16:02:15.937Z,95036.09
2023-11-30T16:04:43.481Z,95040.53
2023-11-30T16:07:10.326Z,95035.28
2023-11-30T16:09:37.126Z,95038.63
2023-11-30T16:12:04.001Z,95048.41
2023-11-30T16:14:30.892Z,95041.00
2023-11-30T16:16:57.755Z,95032.75
2023-11-30T16:19:25.356Z,95029.78
2023-11-30T16:21:56.696Z,95026.41
2023-11-30T16:24:24.263Z,95028.66
2023-11-30T16:26:54.668Z,95031.66
2023-11-30T16:29:22.561Z,95030.13
2023-11-30T16:31:50.518Z,95048.47
2023-11-30T16:34:20.385Z,95055.97
2023-11-30T16:36:48.692Z,95058.59
2023-11-30T16:39:16.304Z,95048.09
2023-11-30T16:41:44.096Z,95024.34
2023-11-30T16:44:10.884Z,95028.41
2023-11-30T16:46:38.756Z,95010.41
2023-11-30T16:49:05.878Z,95000.31
2023-11-30T16:51:33.099Z,95018.03
2023-11-30T16:53:59.868Z,95013.84
2023-11-30T16:56:27.491Z,95003.72
2023-11-30T16:58:55.712Z,94997.41
2023-11-30T17:01:23.049Z,95013.19
2023-11-30T17:03:50.162Z,95019.59
2023-11-30T17:06:17.361Z,95028.25
2023-11-30T17:08:44.264Z,95039.47
2023-11-30T17:11:11.114Z,95030.13
2023-11-30T17:13:38.287Z,95036.09
2023-11-30T17:16:08.614Z,95053.00
2023-11-30T17:18:36.261Z,95057.53
2023-11-30T17:21:03.427Z,95046.31
2023-11-30T17:23:30.040Z,95044.09
2023-11-30T17:25:58.160Z,95040.63
2023-11-30T17:28:25.300Z,95046.63
2023-11-30T17:30:52.709Z,95061.63
2023-11-30T17:33:19.700Z,95056.41
2023-11-30T17:35:46.864Z,95053.47
2023-11-30T17:38:13.590Z,95033.25
2023-11-30T17:40:40.260Z,95040.41
2023-11-30T17:43:07.683Z,95046.72
2023-11-30T17:45:34.338Z,95047.84
2023-11-30T17:48:01.962Z,95031.72
2023-11-30T17:50:28.782Z,95020.50
2023-11-30T17:52:55.471Z,95025.41
2023-11-30T17:55:22.640Z,95009.59
2023-11-30T17:57:49.252Z,94993.75
2023-11-30T18:00:16.474Z,94997.09
2023-11-30T18:02:43.172Z,95000.84
2023-11-30T18:05:10.221Z,94997.81
2023-11-30T18:07:36.818Z,94997.38
2023-11-30T18:10:04.868Z,94994.75
2023-11-30T18:12:31.620Z,95009.78
2023-11-30T18:14:58.398Z,95016.22
2023-11-30T18:17:26.202Z,95023.75
2023-11-30T18:19:52.939Z,95032.75
2023-11-30T18:22:19.599Z,95024.84
2023-11-30T18:24:46.479Z,95015.09
2023-11-30T18:27:13.249Z,95013.28
2023-11-30T18:29:40.140Z,95008.47
2023-11-30T18:32:06.953Z,95016.78
2023-11-30T18:34:33.865Z,95014.97
2023-11-30T18:37:01.473Z,95006.72
2023-11-30T18:39:28.191Z,95014.69
2023-11-30T18:41:56.319Z,95002.66
2023-11-30T18:44:23.074Z,94998.13
2023-11-30T18:46:49.832Z,95003.31
2023-11-30T18:49:16.665Z,95003.59
2023-11-30T18:51:43.583Z,95008.50
2023-11-30T18:54:10.382Z,95008.16
2023-11-30T18:56:37.639Z,94999.84
2023-11-30T18:59:04.401Z,94992.25
2023-11-30T19:01:31.193Z,94996.34
2023-11-30T19:03:58.661Z,94995.63
2023-11-30T19:06:25.754Z,94996.84
2023-11-30T19:08:53.483Z,94995.72
2023-11-30T19:11:23.409Z,95013.78
2023-11-30T19:13:50.214Z,95013.81
2023-11-30T19:16:18.941Z,95023.41
2023-11-30T19:18:45.846Z,95027.84
2023-11-30T19:21:12.994Z,95032.53
2023-11-30T19:23:39.747Z,95034.34
2023-11-30T19:26:07.486Z,95042.78
2023-11-30T19:28:37.647Z,95035.06
2023-11-30T19:31:05.064Z,95040.56
2023-11-30T19:33:33.510Z,95038.63
2023-11-30T19:36:00.393Z,95034.44
2023-11-30T19:38:28.844Z,95027.31
2023-11-30T19:40:57.135Z,95034.06
2023-11-30T19:43:25.354Z,95031.81
2023-11-30T19:45:55.491Z,95030.63
2023-11-30T19:48:23.388Z,95028.31
2023-11-30T19:50:50.262Z,95024.91
2023-11-30T19:53:17.259Z,95028.66
2023-11-30T19:55:47.775Z,95032.75
2023-11-30T19:58:17.651Z,95027.91
2023-11-30T20:00:45.522Z,95026.41
2023-11-30T20:03:12.824Z,95021.78
2023-11-30T20:05:40.102Z,95028.81
2023-11-30T20:08:06.994Z,95034.00
2023-11-30T20:10:34.043Z,95032.88
2023-11-30T20:13:02.477Z,95048.63
2023-11-30T20:15:31.438Z,95046.38
2023-11-30T20:17:58.661Z,95051.66
2023-11-30T20:20:25.661Z,95055.13
2023-11-30T20:22:52.535Z,95074.31
2023-11-30T20:25:19.391Z,95086.34
2023-11-30T20:27:46.300Z,95080.66
2023-11-30T20:30:13.514Z,95070.47
2023-11-30T20:32:40.802Z,95067.50
2023-11-30T20:35:08.490Z,95066.75
2023-11-30T20:37:35.385Z,95061.53
2023-11-30T20:40:02.314Z,95060.06
2023-11-30T20:42:29.601Z,95070.69
2023-11-30T20:44:56.662Z,95071.09
2023-11-30T20:47:25.841Z,95065.53
2023-11-30T20:49:53.477Z,95063.72
2023-11-30T20:52:20.519Z,95071.25
2023-11-30T20:54:48.613Z,95061.88
2023-11-30T20:57:16.593Z,95059.56
2023-11-30T20:59:43.816Z,95052.38
2023-11-30T21:02:11.224Z,95059.88
2023-11-30T21:04:38.677Z,95050.09
2023-11-30T21:07:07.292Z,95053.56
2023-11-30T21:09:34.383Z,95046.81
2023-11-30T21:12:01.003Z,95053.56
2023-11-30T21:14:27.995Z,95050.41
2023-11-30T21:16:54.811Z,95043.16
2023-11-30T21:19:21.610Z,95035.59
2023-11-30T21:21:48.773Z,95044.63
2023-11-30T21:24:16.292Z,95052.22
2023-11-30T21:26:43.255Z,95043.97
2023-11-30T21:29:10.154Z,95037.59
2023-11-30T21:31:39.266Z,95032.41
2023-11-30T21:34:06.338Z,95026.06
2023-11-30T21:36:33.355Z,95032.53
2023-11-30T21:39:00.406Z,95033.38
2023-11-30T21:41:27.120Z,95034.91
2023-11-30T21:43:53.919Z,95031.97
2023-11-30T21:46:20.912Z,95027.88
2023-11-30T21:48:47.759Z,95033.53
2023-11-30T21:51:14.850Z,95033.13
2023-11-30T21:53:41.587Z,95041.31
2023-11-30T21:56:10.645Z,95042.78
2023-11-30T21:58:38.301Z,95046.84
2023-11-30T22:01:06.025Z,95052.63
2023-11-30T22:03:33.261Z,95040.78
2023-11-30T22:06:00.077Z,95038.84
2023-11-30T22:08:28.590Z,95051.63
2023-11-30T22:10:55.433Z,95055.88
2023-11-30T22:13:22.459Z,95057.03
2023-11-30T22:15:56.946Z,95052.16
2023-11-30T22:18:26.955Z,95059.41
2023-11-30T22:20:56.287Z,95063.97
2023-11-30T22:23:23.852Z,95056.88
2023-11-30T22:25:56.207Z,95058.81
2023-11-30T22:28:29.487Z,95051.34
2023-11-30T22:30:56.205Z,95049.53
2023-11-30T22:33:23.159Z,95051.81
2023-11-30T22:35:50.008Z,95052.16
2023-11-30T22:38:16.846Z,95057.03
2023-11-30T22:40:43.621Z,95053.56
2023-11-30T22:43:10.771Z,95048.59
2023-11-30T22:45:37.688Z,95051.91
2023-11-30T22:48:04.530Z,95051.91
2023-11-30T22:50:31.503Z,95061.00
2023-11-30T22:52:58.515Z,95064.00
2023-11-30T22:55:25.519Z,95064.31
2023-11-30T22:57:52.498Z,95066.13
2023-11-30T23:00:25.237Z,95064.66
2023-11-30T23:02:52.996Z,95074.53
2023-11-30T23:05:20.488Z,95070.09
2023-11-30T23:07:48.595Z,95076.50
2023-11-30T23:10:22.160Z,95077.28
2023-11-30T23:12:48.966Z,95068.66
2023-11-30T23:15:16.322Z,95063.81
2023-11-30T23:17:43.277Z,95049.47
2023-11-30T23:20:10.696Z,95034.78
2023-11-30T23:22:37.511Z,95029.47
2023-11-30T23:25:04.510Z,95029.06
2023-11-30T23:27:31.425Z,95033.25
2023-11-30T23:29:59.633Z,95032.53
2023-11-30T23:32:26.493Z,95031.78
2023-11-30T23:34:53.320Z,95032.91
2023-11-30T23:37:20.034Z,95036.97
2023-11-30T23:39:46.758Z,95030.28
2023-11-30T23:42:13.807Z,95026.97
2023-11-30T23:44:40.507Z,95030.00
2023-11-30T23:47:07.430Z,95034.97
2023-11-30T23:49:38.076Z,95044.38
2023-11-30T23:52:05.277Z,95041.03
2023-11-30T23:54:32.235Z,95034.63
2023-11-30T23:56:58.952Z,95029.81
2023-11-30T23:59:26.205Z,95031.25
